createdAt,value
2022-11-23T00:00:31.932Z,7.26
2022-11-23T00:05:35.152Z,6.96
2022-11-23T00:10:38.883Z,6.42
2022-11-23T00:15:42.148Z,6.53
2022-11-23T00:20:45.885Z,6.23
2022-11-23T00:25:49.890Z,6.26
2022-11-23T00:30:54.414Z,6.23
2022-11-23T00:36:04.218Z,6.20
2022-11-23T00:41:11.720Z,5.99
2022-11-23T00:46:17.925Z,5.86
2022-11-23T00:51:24.652Z,5.71
2022-11-23T00:56:29.092Z,5.73
2022-11-23T01:01:37.213Z,5.63
2022-11-23T01:06:41.459Z,5.58
2022-11-23T01:11:45.457Z,5.61
2022-11-23T01:16:49.122Z,5.52
2022-11-23T01:21:52.785Z,5.40
2022-11-23T01:26:56.463Z,5.55
2022-11-23T01:31:59.587Z,5.70
2022-11-23T01:37:02.777Z,5.55
2022-11-23T01:42:08.455Z,5.61
2022-11-23T01:47:12.333Z,5.61
2022-11-23T01:52:21.872Z,5.73
2022-11-23T01:57:37.348Z,5.99
2022-11-23T02:02:50.436Z,5.72
2022-11-23T02:07:54.695Z,5.72
2022-11-23T02:13:05.606Z,5.79
2022-11-23T02:18:18.028Z,5.80
2022-11-23T02:23:47.020Z,5.81
2022-11-23T02:29:02.162Z,5.90
2022-11-23T02:34:07.819Z,5.47
2022-11-23T02:39:21.763Z,5.91
2022-11-23T02:44:36.814Z,5.88
2022-11-23T02:49:42.136Z,5.88
2022-11-23T02:54:45.744Z,5.84
2022-11-23T02:59:49.736Z,5.88
2022-11-23T03:04:53.383Z,5.92
2022-11-23T03:09:56.658Z,5.95
2022-11-23T03:15:01.641Z,5.92
2022-11-23T03:20:07.658Z,6.26
2022-11-23T03:25:16.738Z,6.35
2022-11-23T03:30:22.076Z,6.35
2022-11-23T03:35:26.518Z,6.25
2022-11-23T03:40:48.559Z,6.18
2022-11-23T03:46:04.172Z,6.31
2022-11-23T03:51:07.811Z,6.50
2022-11-23T03:56:12.589Z,6.32
2022-11-23T04:01:24.666Z,6.28
2022-11-23T04:06:35.318Z,6.39
2022-11-23T04:11:46.764Z,6.28
2022-11-23T04:16:49.821Z,6.44
2022-11-23T04:21:54.285Z,6.41
2022-11-23T04:26:59.423Z,6.38
2022-11-23T04:32:02.544Z,6.46
2022-11-23T04:37:10.298Z,6.60
2022-11-23T04:42:18.386Z,6.28
2022-11-23T04:47:28.034Z,6.28
2022-11-23T04:52:35.935Z,6.18
2022-11-23T04:57:45.941Z,6.41
2022-11-23T05:02:49.715Z,6.41
2022-11-23T05:08:00.350Z,6.23
2022-11-23T05:13:16.202Z,6.05
2022-11-23T05:18:20.990Z,6.09
2022-11-23T05:23:26.592Z,5.92
2022-11-23T05:28:40.157Z,5.72
2022-11-23T05:33:47.265Z,5.71
2022-11-23T05:38:53.663Z,5.39
2022-11-23T05:44:03.662Z,5.58
2022-11-23T05:49:08.249Z,5.25
2022-11-23T05:54:14.378Z,4.91
2022-11-23T05:59:22.677Z,4.63
2022-11-23T06:04:32.641Z,4.56
2022-11-23T06:09:36.664Z,4.69
2022-11-23T06:14:44.433Z,5.00
2022-11-23T06:19:50.980Z,5.55
2022-11-23T06:24:54.936Z,5.92
2022-11-23T06:30:33.187Z,6.45
2022-11-23T06:35:41.395Z,6.73
2022-11-23T06:40:44.861Z,6.84
2022-11-23T06:45:48.724Z,7.08
2022-11-23T06:50:52.381Z,7.71
2022-11-23T06:56:03.306Z,10.48
2022-11-23T07:01:09.693Z,13.07
2022-11-23T07:06:19.572Z,14.95
2022-11-23T07:11:23.391Z,12.20
2022-11-23T07:16:26.932Z,11.52
2022-11-23T07:21:30.785Z,12.21
2022-11-23T07:26:34.422Z,13.11
2022-11-23T07:31:38.604Z,13.64
2022-11-23T07:36:42.019Z,13.30
2022-11-23T07:41:45.580Z,14.90
2022-11-23T07:46:57.315Z,15.33
2022-11-23T07:52:00.574Z,16.33
2022-11-23T07:57:04.183Z,16.75
2022-11-23T08:02:13.039Z,17.07
2022-11-23T08:07:18.712Z,17.27
2022-11-23T08:12:22.035Z,17.23
2022-11-23T08:17:25.218Z,16.68
2022-11-23T08:22:28.310Z,15.52
2022-11-23T08:27:32.225Z,17.13
2022-11-23T08:32:36.427Z,17.07
2022-11-23T08:37:39.967Z,17.53
2022-11-23T08:42:43.623Z,17.45
2022-11-23T08:47:46.910Z,17.77
2022-11-23T08:52:56.239Z,18.88
2022-11-23T08:57:59.971Z,19.35
2022-11-23T09:03:04.192Z,19.41
2022-11-23T09:08:07.461Z,19.68
2022-11-23T09:13:10.587Z,19.34
2022-11-23T09:18:14.081Z,19.76
2022-11-23T09:23:17.335Z,19.90
2022-11-23T09:28:21.014Z,20.43
2022-11-23T09:33:25.562Z,20.38
2022-11-23T09:38:54.538Z,20.55
2022-11-23T09:44:21.089Z,19.89
2022-11-23T09:49:38.459Z,20.74
2022-11-23T09:54:45.489Z,19.83
2022-11-23T09:59:59.442Z,19.23
2022-11-23T10:05:04.846Z,20.23
2022-11-23T10:10:42.377Z,18.83
2022-11-23T10:16:23.380Z,19.49
2022-11-23T10:22:13.086Z,19.09
2022-11-23T10:27:19.016Z,18.02
2022-11-23T10:32:37.696Z,18.41
2022-11-23T10:37:42.372Z,18.29
2022-11-23T10:42:55.138Z,17.61
2022-11-23T10:48:01.624Z,16.72
2022-11-23T10:53:28.695Z,16.79
2022-11-23T10:58:39.262Z,16.70
2022-11-23T11:03:43.014Z,16.83
2022-11-23T11:08:56.152Z,17.37
2022-11-23T11:14:17.632Z,17.25
2022-11-23T11:19:31.235Z,17.12
2022-11-23T11:24:47.400Z,16.86
2022-11-23T11:30:24.648Z,17.40
2022-11-23T11:35:32.599Z,17.52
2022-11-23T11:40:48.591Z,17.26
2022-11-23T11:51:35.618Z,17.54
2022-11-23T11:56:44.562Z,16.26
2022-11-23T12:02:19.867Z,16.04
2022-11-23T12:07:40.232Z,16.13
2022-11-23T12:12:44.962Z,15.52
2022-11-23T12:17:56.858Z,15.67
2022-11-23T12:23:09.800Z,15.99
2022-11-23T12:28:27.396Z,15.48
2022-11-23T12:33:46.394Z,15.29
2022-11-23T12:38:58.640Z,14.82
2022-11-23T12:44:24.845Z,14.87
2022-11-23T12:49:49.528Z,15.52
2022-11-23T12:55:18.016Z,16.01
2022-11-23T13:00:25.202Z,16.94
2022-11-23T13:05:50.382Z,15.58
2022-11-23T13:11:25.539Z,16.65
2022-11-23T13:16:55.016Z,16.62
2022-11-23T13:21:59.426Z,15.39
2022-11-23T13:27:14.953Z,14.67
2022-11-23T13:32:52.663Z,14.35
2022-11-23T13:38:02.242Z,14.34
2022-11-23T13:43:22.823Z,14.01
2022-11-23T13:48:55.434Z,13.81
2022-11-23T13:53:57.714Z,13.52
2022-11-23T13:59:23.837Z,13.15
2022-11-23T14:04:29.645Z,12.96
2022-11-23T14:09:35.365Z,12.93
2022-11-23T14:14:54.247Z,12.73
2022-11-23T14:20:14.955Z,12.60
2022-11-23T14:25:43.698Z,12.31
2022-11-23T14:31:09.141Z,12.03
2022-11-23T14:36:26.534Z,11.88
2022-11-23T14:41:32.520Z,11.83
2022-11-23T14:46:35.580Z,11.75
2022-11-23T14:51:45.247Z,11.58
2022-11-23T14:56:51.375Z,11.55
2022-11-23T15:02:01.439Z,11.38
2022-11-23T15:07:12.618Z,11.56
2022-11-23T15:12:26.531Z,11.44
2022-11-23T15:17:29.781Z,11.53
2022-11-23T15:22:37.015Z,11.38
2022-11-23T15:27:44.473Z,11.37
2022-11-23T15:32:59.977Z,11.41
2022-11-23T15:38:08.044Z,11.37
2022-11-23T15:43:16.797Z,11.52
2022-11-23T15:48:23.534Z,11.24
2022-11-23T15:53:47.203Z,11.02
2022-11-23T15:58:52.441Z,10.81
2022-11-23T16:04:05.153Z,10.63
2022-11-23T16:09:50.746Z,10.45
2022-11-23T16:14:58.805Z,10.01
2022-11-23T16:20:05.747Z,9.75
2022-11-23T16:25:27.895Z,9.83
2022-11-23T16:30:40.756Z,10.02
2022-11-23T16:35:44.454Z,10.15
2022-11-23T16:40:48.702Z,10.47
2022-11-23T16:45:52.062Z,10.55
2022-11-23T16:50:56.815Z,10.62
2022-11-23T16:56:03.139Z,10.69
2022-11-23T17:01:16.715Z,10.50
2022-11-23T17:06:24.353Z,10.12
2022-11-23T17:11:27.984Z,9.92
2022-11-23T17:16:31.573Z,9.87
2022-11-23T17:21:35.125Z,9.80
2022-11-23T17:26:45.102Z,9.78
2022-11-23T17:31:50.814Z,9.73
2022-11-23T17:36:54.499Z,9.69
2022-11-23T17:42:04.844Z,9.68
2022-11-23T17:47:24.268Z,9.66
2022-11-23T17:52:27.533Z,9.61
2022-11-23T17:57:30.642Z,9.57
2022-11-23T18:02:33.600Z,9.54
2022-11-23T18:07:37.551Z,9.50
2022-11-23T18:12:40.970Z,9.44
2022-11-23T18:17:44.070Z,9.33
2022-11-23T18:22:47.100Z,9.34
2022-11-23T18:27:50.394Z,9.31
2022-11-23T18:32:53.541Z,9.37
2022-11-23T18:37:56.679Z,9.43
2022-11-23T18:42:59.816Z,9.45
2022-11-23T18:48:03.587Z,9.57
2022-11-23T18:53:09.505Z,9.47
2022-11-23T18:58:13.447Z,9.46
2022-11-23T19:03:16.674Z,9.39
2022-11-23T19:08:19.674Z,9.09
2022-11-23T19:13:22.683Z,8.74
2022-11-23T19:18:25.635Z,8.52
2022-11-23T19:23:29.893Z,8.48
2022-11-23T19:28:34.386Z,9.15
2022-11-23T19:33:37.447Z,9.25
2022-11-23T19:38:41.253Z,8.84
2022-11-23T19:43:45.285Z,9.26
2022-11-23T19:48:49.566Z,9.39
2022-11-23T19:53:55.129Z,9.11
2022-11-23T19:59:00.001Z,9.25
2022-11-23T20:04:09.771Z,9.34
2022-11-23T20:09:21.635Z,9.23
2022-11-23T20:14:25.310Z,9.08
2022-11-23T20:19:28.943Z,8.82
2022-11-23T20:24:33.175Z,8.70
2022-11-23T20:29:37.235Z,8.53
2022-11-23T20:34:41.086Z,8.46
2022-11-23T20:39:44.568Z,8.58
2022-11-23T20:44:47.997Z,8.58
2022-11-23T20:49:52.589Z,8.71
2022-11-23T20:54:55.890Z,8.51
2022-11-23T20:59:59.330Z,8.18
2022-11-23T21:05:03.093Z,7.92
2022-11-23T21:10:06.672Z,7.69
2022-11-23T21:15:09.798Z,7.41
2022-11-23T21:20:12.974Z,7.40
2022-11-23T21:25:16.135Z,7.47
2022-11-23T21:30:19.521Z,7.24
2022-11-23T21:35:22.536Z,7.28
2022-11-23T21:40:25.605Z,7.30
2022-11-23T21:45:28.642Z,7.41
2022-11-23T21:50:31.706Z,7.39
2022-11-23T21:55:34.918Z,7.18
2022-11-23T22:00:37.968Z,6.96
2022-11-23T22:05:41.065Z,6.86
2022-11-23T22:10:44.344Z,6.95
2022-11-23T22:15:48.182Z,6.97
2022-11-23T22:20:52.311Z,7.11
2022-11-23T22:25:55.816Z,7.23
2022-11-23T22:30:59.143Z,7.28
2022-11-23T22:36:08.340Z,7.42
2022-11-23T22:41:13.480Z,7.29
2022-11-23T22:46:19.474Z,7.19
2022-11-23T22:51:23.984Z,7.10
2022-11-23T22:56:29.017Z,6.95
2022-11-23T23:01:32.383Z,6.85
2022-11-23T23:06:36.157Z,6.94
2022-11-23T23:11:40.307Z,7.00
2022-11-23T23:16:44.437Z,6.95
2022-11-23T23:21:47.483Z,7.12
2022-11-23T23:26:50.501Z,7.03
2022-11-23T23:31:53.670Z,7.13
2022-11-23T23:36:56.868Z,7.03
2022-11-23T23:41:59.912Z,6.84
2022-11-23T23:47:03.054Z,6.68
2022-11-23T23:52:06.045Z,6.54
2022-11-23T23:57:09.296Z,6.56
